Terminal Aerodrome Forecast
Issued by NWS

Home | Current Version | Previous Version | Text Only | Print | Product List | Glossary On
Versions: 1 2 3 4 5 6 7 8 9 10 11 12 13 14 15 16
000
FTUS46 KPDT 040530
TAFDLS
TAF
KDLS 040530Z 0406/0506 30012G25KT P6SM SCT200
     FM040900 31008KT P6SM BKN180
     FM041800 32011KT P6SM OVC100
     FM050000 31011KT P6SM VCSH OVC100=

USA.gov is the U.S. government's official web portal to all federal, state and local government web resources and services.